sensor_id;sensor_type;location;lat;lon;timestamp;temperature;humidity
15341;DHT22;7770;52.158;5.372;2022-12-20T00:00:29;10.10;99.90
15341;DHT22;7770;52.158;5.372;2022-12-20T00:03:15;10.10;99.90
15341;DHT22;7770;52.158;5.372;2022-12-20T00:06:02;10.10;99.90
15341;DHT22;7770;52.158;5.372;2022-12-20T00:08:59;10.10;99.90
15341;DHT22;7770;52.158;5.372;2022-12-20T00:11:46;10.10;99.90
15341;DHT22;7770;52.158;5.372;2022-12-20T00:14:32;10.10;99.90
15341;DHT22;7770;52.158;5.372;2022-12-20T00:17:18;10.20;99.90
15341;DHT22;7770;52.158;5.372;2022-12-20T00:20:04;10.20;99.90
15341;DHT22;7770;52.158;5.372;2022-12-20T00:22:51;10.30;99.90
15341;DHT22;7770;52.158;5.372;2022-12-20T00:25:37;10.30;99.90
15341;DHT22;7770;52.158;5.372;2022-12-20T00:28:23;10.40;99.90
15341;DHT22;7770;52.158;5.372;2022-12-20T00:31:10;10.40;99.90
15341;DHT22;7770;52.158;5.372;2022-12-20T00:33:58;10.40;99.90
15341;DHT22;7770;52.158;5.372;2022-12-20T00:36:45;10.40;99.90
15341;DHT22;7770;52.158;5.372;2022-12-20T00:39:31;10.40;99.90
15341;DHT22;7770;52.158;5.372;2022-12-20T00:42:17;10.50;99.90
15341;DHT22;7770;52.158;5.372;2022-12-20T00:45:03;10.50;99.90
15341;DHT22;7770;52.158;5.372;2022-12-20T00:47:49;10.50;99.90
15341;DHT22;7770;52.158;5.372;2022-12-20T00:50:35;10.50;99.90
15341;DHT22;7770;52.158;5.372;2022-12-20T00:53:21;10.50;99.90
15341;DHT22;7770;52.158;5.372;2022-12-20T00:56:08;10.60;99.90
15341;DHT22;7770;52.158;5.372;2022-12-20T00:58:57;10.50;99.90
15341;DHT22;7770;52.158;5.372;2022-12-20T01:01:45;10.60;99.90
15341;DHT22;7770;52.158;5.372;2022-12-20T01:04:32;10.60;99.90
15341;DHT22;7770;52.158;5.372;2022-12-20T01:07:18;10.60;99.90
15341;DHT22;7770;52.158;5.372;2022-12-20T01:10:05;10.60;99.90
15341;DHT22;7770;52.158;5.372;2022-12-20T01:12:51;10.60;99.90
15341;DHT22;7770;52.158;5.372;2022-12-20T01:15:38;10.60;99.90
15341;DHT22;7770;52.158;5.372;2022-12-20T01:18:24;10.60;99.90
15341;DHT22;7770;52.158;5.372;2022-12-20T01:21:11;10.60;99.90
15341;DHT22;7770;52.158;5.372;2022-12-20T01:23:58;10.50;99.90
15341;DHT22;7770;52.158;5.372;2022-12-20T01:26:45;10.50;99.90
15341;DHT22;7770;52.158;5.372;2022-12-20T01:29:32;10.40;99.90
15341;DHT22;7770;52.158;5.372;2022-12-20T01:32:18;10.40;99.90
15341;DHT22;7770;52.158;5.372;2022-12-20T01:35:04;10.30;99.90
15341;DHT22;7770;52.158;5.372;2022-12-20T01:37:50;10.10;99.90
15341;DHT22;7770;52.158;5.372;2022-12-20T01:40:38;10.00;99.90
15341;DHT22;7770;52.158;5.372;2022-12-20T01:43:25;9.90;99.90
15341;DHT22;7770;52.158;5.372;2022-12-20T01:46:34;9.80;99.90
15341;DHT22;7770;52.158;5.372;2022-12-20T01:49:43;9.80;99.90
15341;DHT22;7770;52.158;5.372;2022-12-20T01:52:38;9.70;99.90
15341;DHT22;7770;52.158;5.372;2022-12-20T01:55:27;9.70;99.90
15341;DHT22;7770;52.158;5.372;2022-12-20T01:58:14;9.60;99.90
15341;DHT22;7770;52.158;5.372;2022-12-20T02:01:01;9.60;99.90
15341;DHT22;7770;52.158;5.372;2022-12-20T02:03:48;9.50;99.90
15341;DHT22;7770;52.158;5.372;2022-12-20T02:06:34;9.50;99.90
15341;DHT22;7770;52.158;5.372;2022-12-20T02:09:21;9.50;99.90
15341;DHT22;7770;52.158;5.372;2022-12-20T02:12:11;9.50;99.90
15341;DHT22;7770;52.158;5.372;2022-12-20T02:19:07;9.50;99.90
15341;DHT22;7770;52.158;5.372;2022-12-20T02:22:14;9.50;99.90
15341;DHT22;7770;52.158;5.372;2022-12-20T02:32:08;9.50;99.90
15341;DHT22;7770;52.158;5.372;2022-12-20T02:34:58;9.40;99.90
15341;DHT22;7770;52.158;5.372;2022-12-20T02:37:52;9.40;99.90
15341;DHT22;7770;52.158;5.372;2022-12-20T02:40:43;9.50;99.90
15341;DHT22;7770;52.158;5.372;2022-12-20T02:43:30;9.50;99.90
15341;DHT22;7770;52.158;5.372;2022-12-20T02:46:36;9.50;99.90
15341;DHT22;7770;52.158;5.372;2022-12-20T02:49:28;9.50;99.90
15341;DHT22;7770;52.158;5.372;2022-12-20T02:52:18;9.50;99.90
15341;DHT22;7770;52.158;5.372;2022-12-20T02:55:06;9.50;99.90
15341;DHT22;7770;52.158;5.372;2022-12-20T02:58:02;9.50;99.90
15341;DHT22;7770;52.158;5.372;2022-12-20T03:00:52;9.50;99.90
15341;DHT22;7770;52.158;5.372;2022-12-20T03:03:40;9.60;99.90
15341;DHT22;7770;52.158;5.372;2022-12-20T03:06:26;9.60;99.90
15341;DHT22;7770;52.158;5.372;2022-12-20T03:09:12;9.60;99.90
15341;DHT22;7770;52.158;5.372;2022-12-20T03:11:58;9.50;99.90
15341;DHT22;7770;52.158;5.372;2022-12-20T03:14:44;9.60;99.90
15341;DHT22;7770;52.158;5.372;2022-12-20T03:17:30;9.50;99.90
15341;DHT22;7770;52.158;5.372;2022-12-20T03:20:17;9.50;99.90
15341;DHT22;7770;52.158;5.372;2022-12-20T03:23:03;9.60;99.90
15341;DHT22;7770;52.158;5.372;2022-12-20T03:25:49;9.70;99.90
15341;DHT22;7770;52.158;5.372;2022-12-20T03:28:35;9.80;99.90
15341;DHT22;7770;52.158;5.372;2022-12-20T03:31:22;9.90;99.90
15341;DHT22;7770;52.158;5.372;2022-12-20T03:34:08;9.90;99.90
15341;DHT22;7770;52.158;5.372;2022-12-20T03:36:54;9.90;99.90
15341;DHT22;7770;52.158;5.372;2022-12-20T03:39:40;9.90;99.90
15341;DHT22;7770;52.158;5.372;2022-12-20T03:42:26;10.00;99.90
15341;DHT22;7770;52.158;5.372;2022-12-20T03:45:12;10.10;99.90
15341;DHT22;7770;52.158;5.372;2022-12-20T03:47:58;10.10;99.90
15341;DHT22;7770;52.158;5.372;2022-12-20T03:50:44;10.00;99.90
15341;DHT22;7770;52.158;5.372;2022-12-20T03:53:30;10.10;99.90
15341;DHT22;7770;52.158;5.372;2022-12-20T03:56:16;10.10;99.90
15341;DHT22;7770;52.158;5.372;2022-12-20T03:59:02;10.10;99.90
15341;DHT22;7770;52.158;5.372;2022-12-20T04:01:48;10.10;99.90
15341;DHT22;7770;52.158;5.372;2022-12-20T04:04:34;10.10;99.90
15341;DHT22;7770;52.158;5.372;2022-12-20T04:07:20;10.10;99.90
15341;DHT22;7770;52.158;5.372;2022-12-20T04:10:07;10.10;99.90
15341;DHT22;7770;52.158;5.372;2022-12-20T04:12:53;10.10;99.90
15341;DHT22;7770;52.158;5.372;2022-12-20T04:15:39;10.20;99.90
15341;DHT22;7770;52.158;5.372;2022-12-20T04:18:25;10.30;99.90
15341;DHT22;7770;52.158;5.372;2022-12-20T04:21:11;10.30;99.90
15341;DHT22;7770;52.158;5.372;2022-12-20T04:23:59;10.30;99.90
15341;DHT22;7770;52.158;5.372;2022-12-20T04:26:46;10.30;99.90
15341;DHT22;7770;52.158;5.372;2022-12-20T04:29:34;10.30;99.90
15341;DHT22;7770;52.158;5.372;2022-12-20T04:32:19;10.30;99.90
15341;DHT22;7770;52.158;5.372;2022-12-20T04:35:06;10.30;99.90
15341;DHT22;7770;52.158;5.372;2022-12-20T04:37:52;10.30;99.90
15341;DHT22;7770;52.158;5.372;2022-12-20T04:40:38;10.40;99.90
15341;DHT22;7770;52.158;5.372;2022-12-20T04:43:24;10.40;99.90
15341;DHT22;7770;52.158;5.372;2022-12-20T04:46:10;10.50;99.90
15341;DHT22;7770;52.158;5.372;2022-12-20T04:48:56;10.60;99.90
15341;DHT22;7770;52.158;5.372;2022-12-20T04:51:42;10.60;99.90
15341;DHT22;7770;52.158;5.372;2022-12-20T04:54:29;10.60;99.90
15341;DHT22;7770;52.158;5.372;2022-12-20T04:57:14;10.60;99.90
15341;DHT22;7770;52.158;5.372;2022-12-20T05:00:01;10.70;99.90
15341;DHT22;7770;52.158;5.372;2022-12-20T05:02:47;10.60;99.90
15341;DHT22;7770;52.158;5.372;2022-12-20T05:05:33;10.60;99.90
15341;DHT22;7770;52.158;5.372;2022-12-20T05:08:19;10.50;99.90
15341;DHT22;7770;52.158;5.372;2022-12-20T05:11:05;10.40;99.90
15341;DHT22;7770;52.158;5.372;2022-12-20T05:13:52;10.40;99.90
15341;DHT22;7770;52.158;5.372;2022-12-20T05:16:38;10.30;99.90
15341;DHT22;7770;52.158;5.372;2022-12-20T05:19:24;10.20;99.90
15341;DHT22;7770;52.158;5.372;2022-12-20T05:22:10;10.20;99.90
15341;DHT22;7770;52.158;5.372;2022-12-20T05:25:15;10.20;99.90
15341;DHT22;7770;52.158;5.372;2022-12-20T05:28:20;10.20;99.90
15341;DHT22;7770;52.158;5.372;2022-12-20T05:31:06;10.20;99.90
15341;DHT22;7770;52.158;5.372;2022-12-20T05:33:52;10.10;99.90
15341;DHT22;7770;52.158;5.372;2022-12-20T05:36:38;10.20;99.90
15341;DHT22;7770;52.158;5.372;2022-12-20T05:39:24;10.10;99.90
15341;DHT22;7770;52.158;5.372;2022-12-20T05:42:10;10.20;99.90
15341;DHT22;7770;52.158;5.372;2022-12-20T05:44:56;10.20;99.90
15341;DHT22;7770;52.158;5.372;2022-12-20T05:47:43;10.20;99.90
15341;DHT22;7770;52.158;5.372;2022-12-20T05:50:29;10.20;99.90
15341;DHT22;7770;52.158;5.372;2022-12-20T05:53:16;10.20;99.90
15341;DHT22;7770;52.158;5.372;2022-12-20T05:56:02;10.30;99.90
15341;DHT22;7770;52.158;5.372;2022-12-20T05:58:48;10.30;99.90
15341;DHT22;7770;52.158;5.372;2022-12-20T06:01:34;10.30;99.90
15341;DHT22;7770;52.158;5.372;2022-12-20T06:04:21;10.30;99.90
15341;DHT22;7770;52.158;5.372;2022-12-20T06:07:07;10.40;99.90
15341;DHT22;7770;52.158;5.372;2022-12-20T06:09:54;10.40;99.90
15341;DHT22;7770;52.158;5.372;2022-12-20T06:12:40;10.40;99.90
15341;DHT22;7770;52.158;5.372;2022-12-20T06:15:27;10.50;99.90
15341;DHT22;7770;52.158;5.372;2022-12-20T06:18:13;10.50;99.90
15341;DHT22;7770;52.158;5.372;2022-12-20T06:20:59;10.50;99.90
15341;DHT22;7770;52.158;5.372;2022-12-20T06:23:46;10.50;99.90
15341;DHT22;7770;52.158;5.372;2022-12-20T06:26:32;10.60;99.90
15341;DHT22;7770;52.158;5.372;2022-12-20T06:29:22;10.70;99.90
15341;DHT22;7770;52.158;5.372;2022-12-20T06:32:09;10.70;99.90
15341;DHT22;7770;52.158;5.372;2022-12-20T06:34:55;10.70;99.90
15341;DHT22;7770;52.158;5.372;2022-12-20T06:37:41;10.80;99.90
15341;DHT22;7770;52.158;5.372;2022-12-20T06:40:27;10.80;99.90
15341;DHT22;7770;52.158;5.372;2022-12-20T06:43:13;10.90;99.90
15341;DHT22;7770;52.158;5.372;2022-12-20T06:45:59;10.90;99.90
15341;DHT22;7770;52.158;5.372;2022-12-20T06:48:45;10.80;99.90
15341;DHT22;7770;52.158;5.372;2022-12-20T06:51:31;10.80;99.90
15341;DHT22;7770;52.158;5.372;2022-12-20T06:54:17;10.80;99.90
15341;DHT22;7770;52.158;5.372;2022-12-20T06:57:03;10.90;99.90
15341;DHT22;7770;52.158;5.372;2022-12-20T06:59:49;10.80;99.90
15341;DHT22;7770;52.158;5.372;2022-12-20T07:02:35;10.80;99.90
15341;DHT22;7770;52.158;5.372;2022-12-20T07:05:21;10.90;99.90
15341;DHT22;7770;52.158;5.372;2022-12-20T07:08:07;10.90;99.90
15341;DHT22;7770;52.158;5.372;2022-12-20T07:10:53;10.90;99.90
15341;DHT22;7770;52.158;5.372;2022-12-20T07:13:41;11.00;99.90
15341;DHT22;7770;52.158;5.372;2022-12-20T07:16:27;11.10;99.90
15341;DHT22;7770;52.158;5.372;2022-12-20T07:19:13;11.10;99.90
15341;DHT22;7770;52.158;5.372;2022-12-20T07:22:00;11.10;99.90
15341;DHT22;7770;52.158;5.372;2022-12-20T07:24:46;11.20;99.90
15341;DHT22;7770;52.158;5.372;2022-12-20T07:27:32;11.20;99.90
15341;DHT22;7770;52.158;5.372;2022-12-20T07:30:19;11.20;99.90
15341;DHT22;7770;52.158;5.372;2022-12-20T07:33:05;11.20;99.90
15341;DHT22;7770;52.158;5.372;2022-12-20T07:35:59;11.20;99.90
15341;DHT22;7770;52.158;5.372;2022-12-20T07:38:48;11.20;99.90
15341;DHT22;7770;52.158;5.372;2022-12-20T07:41:35;11.10;99.90
15341;DHT22;7770;52.158;5.372;2022-12-20T07:44:21;11.20;99.90
15341;DHT22;7770;52.158;5.372;2022-12-20T07:47:08;11.20;99.90
15341;DHT22;7770;52.158;5.372;2022-12-20T07:49:54;11.20;99.90
15341;DHT22;7770;52.158;5.372;2022-12-20T07:52:42;11.10;99.90
15341;DHT22;7770;52.158;5.372;2022-12-20T07:55:29;11.00;99.90
15341;DHT22;7770;52.158;5.372;2022-12-20T07:58:17;10.90;99.90
15341;DHT22;7770;52.158;5.372;2022-12-20T08:01:04;10.90;99.90
15341;DHT22;7770;52.158;5.372;2022-12-20T08:03:52;10.80;99.90
15341;DHT22;7770;52.158;5.372;2022-12-20T08:06:42;10.70;99.90
15341;DHT22;7770;52.158;5.372;2022-12-20T08:09:30;10.70;99.90
15341;DHT22;7770;52.158;5.372;2022-12-20T08:12:20;10.60;99.90
15341;DHT22;7770;52.158;5.372;2022-12-20T08:15:08;10.60;99.90
15341;DHT22;7770;52.158;5.372;2022-12-20T08:17:54;10.50;99.90
15341;DHT22;7770;52.158;5.372;2022-12-20T08:20:40;10.60;99.90
15341;DHT22;7770;52.158;5.372;2022-12-20T08:23:26;10.50;99.90
15341;DHT22;7770;52.158;5.372;2022-12-20T08:26:12;10.50;99.90
15341;DHT22;7770;52.158;5.372;2022-12-20T08:28:59;10.50;99.90
15341;DHT22;7770;52.158;5.372;2022-12-20T08:31:45;10.50;99.90
15341;DHT22;7770;52.158;5.372;2022-12-20T08:34:31;10.50;99.90
15341;DHT22;7770;52.158;5.372;2022-12-20T08:37:17;10.50;99.90
15341;DHT22;7770;52.158;5.372;2022-12-20T08:40:04;10.50;99.90
15341;DHT22;7770;52.158;5.372;2022-12-20T08:42:52;10.40;99.90
15341;DHT22;7770;52.158;5.372;2022-12-20T08:45:38;10.40;99.90
15341;DHT22;7770;52.158;5.372;2022-12-20T08:48:24;10.40;99.90
15341;DHT22;7770;52.158;5.372;2022-12-20T08:51:10;10.40;99.90
15341;DHT22;7770;52.158;5.372;2022-12-20T08:53:56;10.40;99.90
15341;DHT22;7770;52.158;5.372;2022-12-20T08:56:42;10.40;99.90
15341;DHT22;7770;52.158;5.372;2022-12-20T08:59:28;10.40;99.90
15341;DHT22;7770;52.158;5.372;2022-12-20T09:02:14;10.40;99.90
15341;DHT22;7770;52.158;5.372;2022-12-20T09:05:00;10.40;99.90
15341;DHT22;7770;52.158;5.372;2022-12-20T09:07:46;10.30;99.90
15341;DHT22;7770;52.158;5.372;2022-12-20T09:10:32;10.20;99.90
15341;DHT22;7770;52.158;5.372;2022-12-20T09:13:18;10.20;99.90
15341;DHT22;7770;52.158;5.372;2022-12-20T09:16:06;10.10;99.90
15341;DHT22;7770;52.158;5.372;2022-12-20T09:18:54;10.10;99.90
15341;DHT22;7770;52.158;5.372;2022-12-20T09:21:42;10.10;99.90
15341;DHT22;7770;52.158;5.372;2022-12-20T09:24:28;10.10;99.90
15341;DHT22;7770;52.158;5.372;2022-12-20T09:27:14;10.10;99.90
15341;DHT22;7770;52.158;5.372;2022-12-20T09:30:00;10.10;99.90
15341;DHT22;7770;52.158;5.372;2022-12-20T09:32:46;10.10;99.90
15341;DHT22;7770;52.158;5.372;2022-12-20T09:35:32;10.10;99.90
15341;DHT22;7770;52.158;5.372;2022-12-20T09:38:18;10.10;99.90
15341;DHT22;7770;52.158;5.372;2022-12-20T09:41:06;10.10;99.90
15341;DHT22;7770;52.158;5.372;2022-12-20T09:44:24;10.00;99.90
15341;DHT22;7770;52.158;5.372;2022-12-20T09:47:19;10.10;99.90
15341;DHT22;7770;52.158;5.372;2022-12-20T09:50:14;10.10;99.90
15341;DHT22;7770;52.158;5.372;2022-12-20T09:53:17;10.10;99.90
15341;DHT22;7770;52.158;5.372;2022-12-20T09:59:34;10.00;99.90
15341;DHT22;7770;52.158;5.372;2022-12-20T10:02:23;10.10;99.90
15341;DHT22;7770;52.158;5.372;2022-12-20T10:05:17;10.00;99.90
15341;DHT22;7770;52.158;5.372;2022-12-20T10:11:30;10.10;99.90
15341;DHT22;7770;52.158;5.372;2022-12-20T10:24:43;10.10;99.90
15341;DHT22;7770;52.158;5.372;2022-12-20T10:27:33;10.20;99.90
15341;DHT22;7770;52.158;5.372;2022-12-20T10:30:25;10.20;99.90
15341;DHT22;7770;52.158;5.372;2022-12-20T10:33:22;10.20;99.90
15341;DHT22;7770;52.158;5.372;2022-12-20T10:36:20;10.30;99.90
15341;DHT22;7770;52.158;5.372;2022-12-20T10:39:08;10.30;99.90
15341;DHT22;7770;52.158;5.372;2022-12-20T10:41:54;10.30;99.90
15341;DHT22;7770;52.158;5.372;2022-12-20T10:44:40;10.30;99.90
15341;DHT22;7770;52.158;5.372;2022-12-20T10:47:37;10.30;99.90
15341;DHT22;7770;52.158;5.372;2022-12-20T10:50:26;10.30;99.90
15341;DHT22;7770;52.158;5.372;2022-12-20T10:53:20;10.30;99.90
15341;DHT22;7770;52.158;5.372;2022-12-20T10:56:25;10.30;99.90
15341;DHT22;7770;52.158;5.372;2022-12-20T11:02:28;10.40;99.90
15341;DHT22;7770;52.158;5.372;2022-12-20T11:05:23;10.30;99.90
15341;DHT22;7770;52.158;5.372;2022-12-20T11:08:16;10.40;99.90
15341;DHT22;7770;52.158;5.372;2022-12-20T11:11:22;10.40;99.90
15341;DHT22;7770;52.158;5.372;2022-12-20T11:14:13;10.40;99.90
15341;DHT22;7770;52.158;5.372;2022-12-20T11:17:50;10.40;99.90
15341;DHT22;7770;52.158;5.372;2022-12-20T11:20:35;10.40;99.90
15341;DHT22;7770;52.158;5.372;2022-12-20T11:26:35;10.40;99.90
15341;DHT22;7770;52.158;5.372;2022-12-20T11:35:54;10.40;99.90
15341;DHT22;7770;52.158;5.372;2022-12-20T11:38:58;10.50;99.90
15341;DHT22;7770;52.158;5.372;2022-12-20T11:42:07;10.50;99.90
15341;DHT22;7770;52.158;5.372;2022-12-20T11:51:08;10.50;99.90
15341;DHT22;7770;52.158;5.372;2022-12-20T11:54:25;10.50;99.90
15341;DHT22;7770;52.158;5.372;2022-12-20T11:57:23;10.50;99.90
15341;DHT22;7770;52.158;5.372;2022-12-20T12:00:13;10.40;99.90
15341;DHT22;7770;52.158;5.372;2022-12-20T12:03:13;10.50;99.90
15341;DHT22;7770;52.158;5.372;2022-12-20T12:06:17;10.50;99.90
15341;DHT22;7770;52.158;5.372;2022-12-20T12:10:02;10.50;99.90
15341;DHT22;7770;52.158;5.372;2022-12-20T12:12:36;10.50;99.90
15341;DHT22;7770;52.158;5.372;2022-12-20T12:15:33;10.50;99.90
15341;DHT22;7770;52.158;5.372;2022-12-20T12:18:28;10.50;99.90
15341;DHT22;7770;52.158;5.372;2022-12-20T12:21:23;10.50;99.90
15341;DHT22;7770;52.158;5.372;2022-12-20T12:24:34;10.50;99.90
15341;DHT22;7770;52.158;5.372;2022-12-20T12:27:27;10.50;99.90
15341;DHT22;7770;52.158;5.372;2022-12-20T12:30:16;10.50;99.90
15341;DHT22;7770;52.158;5.372;2022-12-20T12:33:08;10.50;99.90
15341;DHT22;7770;52.158;5.372;2022-12-20T12:36:24;10.60;99.90
15341;DHT22;7770;52.158;5.372;2022-12-20T12:46:00;10.60;99.90
15341;DHT22;7770;52.158;5.372;2022-12-20T12:48:55;10.50;99.90
15341;DHT22;7770;52.158;5.372;2022-12-20T12:51:58;10.60;99.90
15341;DHT22;7770;52.158;5.372;2022-12-20T12:54:45;10.60;99.90
15341;DHT22;7770;52.158;5.372;2022-12-20T12:57:55;10.60;99.90
15341;DHT22;7770;52.158;5.372;2022-12-20T13:01:10;10.50;99.90
15341;DHT22;7770;52.158;5.372;2022-12-20T13:27:36;10.50;99.90
15341;DHT22;7770;52.158;5.372;2022-12-20T13:30:26;10.50;99.90
15341;DHT22;7770;52.158;5.372;2022-12-20T13:36:36;10.50;99.90
15341;DHT22;7770;52.158;5.372;2022-12-20T13:42:13;10.50;99.90
15341;DHT22;7770;52.158;5.372;2022-12-20T13:45:08;10.50;99.90
15341;DHT22;7770;52.158;5.372;2022-12-20T13:48:00;10.60;99.90
15341;DHT22;7770;52.158;5.372;2022-12-20T13:50:49;10.50;99.90
15341;DHT22;7770;52.158;5.372;2022-12-20T13:53:38;10.50;99.90
15341;DHT22;7770;52.158;5.372;2022-12-20T13:59:15;10.50;99.90
15341;DHT22;7770;52.158;5.372;2022-12-20T14:02:16;10.50;99.90
15341;DHT22;7770;52.158;5.372;2022-12-20T14:05:13;10.50;99.90
15341;DHT22;7770;52.158;5.372;2022-12-20T14:08:06;10.50;99.90
15341;DHT22;7770;52.158;5.372;2022-12-20T14:10:54;10.50;99.90
15341;DHT22;7770;52.158;5.372;2022-12-20T14:13:40;10.50;99.90
15341;DHT22;7770;52.158;5.372;2022-12-20T14:16:32;10.50;99.90
15341;DHT22;7770;52.158;5.372;2022-12-20T14:19:18;10.50;99.90
15341;DHT22;7770;52.158;5.372;2022-12-20T14:22:04;10.50;99.90
15341;DHT22;7770;52.158;5.372;2022-12-20T14:24:50;10.50;99.90
15341;DHT22;7770;52.158;5.372;2022-12-20T14:27:36;10.50;99.90
15341;DHT22;7770;52.158;5.372;2022-12-20T14:30:35;10.50;99.90
15341;DHT22;7770;52.158;5.372;2022-12-20T14:33:39;10.50;99.90
15341;DHT22;7770;52.158;5.372;2022-12-20T14:36:26;10.50;99.90
15341;DHT22;7770;52.158;5.372;2022-12-20T14:39:32;10.50;99.90
15341;DHT22;7770;52.158;5.372;2022-12-20T14:42:19;10.50;99.90
15341;DHT22;7770;52.158;5.372;2022-12-20T14:45:15;10.50;99.90
15341;DHT22;7770;52.158;5.372;2022-12-20T14:48:05;10.50;99.90
15341;DHT22;7770;52.158;5.372;2022-12-20T14:51:03;10.50;99.90
15341;DHT22;7770;52.158;5.372;2022-12-20T14:53:50;10.50;99.90
15341;DHT22;7770;52.158;5.372;2022-12-20T14:56:45;10.50;99.90
15341;DHT22;7770;52.158;5.372;2022-12-20T14:59:32;10.50;99.90
15341;DHT22;7770;52.158;5.372;2022-12-20T15:08:27;10.40;99.90
15341;DHT22;7770;52.158;5.372;2022-12-20T15:11:20;10.40;99.90
15341;DHT22;7770;52.158;5.372;2022-12-20T15:17:21;10.40;99.90
15341;DHT22;7770;52.158;5.372;2022-12-20T15:20:11;10.40;99.90
15341;DHT22;7770;52.158;5.372;2022-12-20T15:22:58;10.40;99.90
15341;DHT22;7770;52.158;5.372;2022-12-20T15:25:45;10.40;99.90
15341;DHT22;7770;52.158;5.372;2022-12-20T15:28:31;10.40;99.90
15341;DHT22;7770;52.158;5.372;2022-12-20T15:31:19;10.30;99.90
15341;DHT22;7770;52.158;5.372;2022-12-20T15:34:25;10.30;99.90
15341;DHT22;7770;52.158;5.372;2022-12-20T15:37:15;10.30;99.90
15341;DHT22;7770;52.158;5.372;2022-12-20T15:40:01;10.30;99.90
15341;DHT22;7770;52.158;5.372;2022-12-20T15:42:47;10.30;99.90
15341;DHT22;7770;52.158;5.372;2022-12-20T15:45:34;10.30;99.90
15341;DHT22;7770;52.158;5.372;2022-12-20T15:48:21;10.30;99.90
15341;DHT22;7770;52.158;5.372;2022-12-20T15:51:17;10.30;99.90
15341;DHT22;7770;52.158;5.372;2022-12-20T15:54:29;10.30;99.90
15341;DHT22;7770;52.158;5.372;2022-12-20T15:57:20;10.30;99.90
15341;DHT22;7770;52.158;5.372;2022-12-20T16:00:06;10.30;99.90
15341;DHT22;7770;52.158;5.372;2022-12-20T16:02:54;10.20;99.90
15341;DHT22;7770;52.158;5.372;2022-12-20T16:05:42;10.30;99.90
15341;DHT22;7770;52.158;5.372;2022-12-20T16:08:28;10.20;99.90
15341;DHT22;7770;52.158;5.372;2022-12-20T16:11:22;10.20;99.90
15341;DHT22;7770;52.158;5.372;2022-12-20T16:14:17;10.20;99.90
15341;DHT22;7770;52.158;5.372;2022-12-20T16:17:15;10.30;99.90
15341;DHT22;7770;52.158;5.372;2022-12-20T16:20:01;10.20;99.90
15341;DHT22;7770;52.158;5.372;2022-12-20T16:22:47;10.20;99.90
15341;DHT22;7770;52.158;5.372;2022-12-20T16:25:35;10.20;99.90
15341;DHT22;7770;52.158;5.372;2022-12-20T16:28:21;10.20;99.90
15341;DHT22;7770;52.158;5.372;2022-12-20T16:34:17;10.20;99.90
15341;DHT22;7770;52.158;5.372;2022-12-20T16:37:03;10.20;99.90
15341;DHT22;7770;52.158;5.372;2022-12-20T16:39:50;10.20;99.90
15341;DHT22;7770;52.158;5.372;2022-12-20T16:42:36;10.20;99.90
15341;DHT22;7770;52.158;5.372;2022-12-20T16:45:25;10.20;99.90
15341;DHT22;7770;52.158;5.372;2022-12-20T16:48:15;10.20;99.90
15341;DHT22;7770;52.158;5.372;2022-12-20T16:51:01;10.20;99.90
15341;DHT22;7770;52.158;5.372;2022-12-20T16:53:47;10.20;99.90
15341;DHT22;7770;52.158;5.372;2022-12-20T16:56:33;10.20;99.90
15341;DHT22;7770;52.158;5.372;2022-12-20T16:59:23;10.10;99.90
15341;DHT22;7770;52.158;5.372;2022-12-20T17:02:33;10.10;99.90
15341;DHT22;7770;52.158;5.372;2022-12-20T17:05:23;10.10;99.90
15341;DHT22;7770;52.158;5.372;2022-12-20T17:08:12;10.20;99.90
15341;DHT22;7770;52.158;5.372;2022-12-20T17:10:58;10.20;99.90
15341;DHT22;7770;52.158;5.372;2022-12-20T17:13:46;10.10;99.90
15341;DHT22;7770;52.158;5.372;2022-12-20T17:16:33;10.20;99.90
15341;DHT22;7770;52.158;5.372;2022-12-20T17:19:19;10.20;99.90
15341;DHT22;7770;52.158;5.372;2022-12-20T17:22:05;10.20;99.90
15341;DHT22;7770;52.158;5.372;2022-12-20T17:24:52;10.20;99.90
15341;DHT22;7770;52.158;5.372;2022-12-20T17:27:38;10.20;99.90
15341;DHT22;7770;52.158;5.372;2022-12-20T17:30:24;10.20;99.90
15341;DHT22;7770;52.158;5.372;2022-12-20T17:33:13;10.20;99.90
15341;DHT22;7770;52.158;5.372;2022-12-20T17:36:00;10.20;99.90
15341;DHT22;7770;52.158;5.372;2022-12-20T17:38:46;10.10;99.90
15341;DHT22;7770;52.158;5.372;2022-12-20T17:41:35;10.10;99.90
15341;DHT22;7770;52.158;5.372;2022-12-20T17:44:28;10.10;99.90
15341;DHT22;7770;52.158;5.372;2022-12-20T17:47:14;10.10;99.90
15341;DHT22;7770;52.158;5.372;2022-12-20T17:50:01;10.10;99.90
15341;DHT22;7770;52.158;5.372;2022-12-20T17:52:47;10.10;99.90
15341;DHT22;7770;52.158;5.372;2022-12-20T17:55:34;10.10;99.90
15341;DHT22;7770;52.158;5.372;2022-12-20T17:58:19;10.10;99.90
15341;DHT22;7770;52.158;5.372;2022-12-20T18:01:06;10.10;99.90
15341;DHT22;7770;52.158;5.372;2022-12-20T18:04:09;10.10;99.90
15341;DHT22;7770;52.158;5.372;2022-12-20T18:06:56;10.10;99.90
15341;DHT22;7770;52.158;5.372;2022-12-20T18:09:45;10.10;99.90
15341;DHT22;7770;52.158;5.372;2022-12-20T18:12:32;10.10;99.90
15341;DHT22;7770;52.158;5.372;2022-12-20T18:15:18;10.10;99.90
15341;DHT22;7770;52.158;5.372;2022-12-20T18:18:05;10.10;99.90
15341;DHT22;7770;52.158;5.372;2022-12-20T18:21:00;10.10;99.90
15341;DHT22;7770;52.158;5.372;2022-12-20T18:23:56;10.10;99.90
15341;DHT22;7770;52.158;5.372;2022-12-20T18:26:43;10.10;99.90
15341;DHT22;7770;52.158;5.372;2022-12-20T18:29:29;10.10;99.90
15341;DHT22;7770;52.158;5.372;2022-12-20T18:32:15;10.10;99.90
15341;DHT22;7770;52.158;5.372;2022-12-20T18:35:02;10.10;99.90
15341;DHT22;7770;52.158;5.372;2022-12-20T18:37:48;10.10;99.90
15341;DHT22;7770;52.158;5.372;2022-12-20T18:40:34;10.10;99.90
15341;DHT22;7770;52.158;5.372;2022-12-20T18:43:20;10.10;99.90
15341;DHT22;7770;52.158;5.372;2022-12-20T18:46:09;10.10;99.90
15341;DHT22;7770;52.158;5.372;2022-12-20T18:49:00;10.10;99.90
15341;DHT22;7770;52.158;5.372;2022-12-20T18:51:46;10.10;99.90
15341;DHT22;7770;52.158;5.372;2022-12-20T18:54:32;10.00;99.90
15341;DHT22;7770;52.158;5.372;2022-12-20T18:57:18;10.00;99.90
15341;DHT22;7770;52.158;5.372;2022-12-20T19:00:05;10.10;99.90
15341;DHT22;7770;52.158;5.372;2022-12-20T19:02:53;10.10;99.90
15341;DHT22;7770;52.158;5.372;2022-12-20T19:05:44;10.00;99.90
15341;DHT22;7770;52.158;5.372;2022-12-20T19:08:30;10.10;99.90
15341;DHT22;7770;52.158;5.372;2022-12-20T19:11:19;10.00;99.90
15341;DHT22;7770;52.158;5.372;2022-12-20T19:14:09;10.00;99.90
15341;DHT22;7770;52.158;5.372;2022-12-20T19:16:56;10.00;99.90
15341;DHT22;7770;52.158;5.372;2022-12-20T19:19:42;10.10;99.90
15341;DHT22;7770;52.158;5.372;2022-12-20T19:22:28;10.00;99.90
15341;DHT22;7770;52.158;5.372;2022-12-20T19:25:14;10.00;99.90
15341;DHT22;7770;52.158;5.372;2022-12-20T19:28:01;10.00;99.90
15341;DHT22;7770;52.158;5.372;2022-12-20T19:30:50;10.00;99.90
15341;DHT22;7770;52.158;5.372;2022-12-20T19:33:37;10.00;99.90
15341;DHT22;7770;52.158;5.372;2022-12-20T19:36:27;10.00;99.90
15341;DHT22;7770;52.158;5.372;2022-12-20T19:39:19;10.00;99.90
15341;DHT22;7770;52.158;5.372;2022-12-20T19:42:07;10.00;99.90
15341;DHT22;7770;52.158;5.372;2022-12-20T19:44:54;10.00;99.90
15341;DHT22;7770;52.158;5.372;2022-12-20T19:47:40;10.10;99.90